MEB weather

Melbourne Essendon Airport
Victoria, Australia

Public forecast

Using degrees Celsius for public forecast. Weather courtesy of forecast.io.

METAR (pilot weather report)

Retrieved 2017/07/27 20:00 UTC (5 minutes ago):

YMEN 272000Z AUTO 30007KT 9999 // SCT048 BKN059 08/06 Q1016

TAF (pilot weather forecast)

Closest forecast is Melbourne International Airport, 4.3 nm (8.0 km) NW. Retrieved 2017/07/27 18:00 UTC (2 hours ago):

TAF YMML 271711Z 2718/2824 26012KT 9999 SCT035 FM280800 36008KT CAVOK FM281600 36020G34KT CAVOK FM282000 36028G46KT CAVOK